createdAt,value
2018-05-29T00:00:22.019Z,1014.12
2018-05-29T00:01:21.945Z,1014.15
2018-05-29T00:02:21.868Z,1014.11
2018-05-29T00:03:21.795Z,1014.09
2018-05-29T00:04:21.719Z,1014.12
2018-05-29T00:05:21.644Z,1014.13
2018-05-29T00:06:21.569Z,1014.16
2018-05-29T00:07:21.508Z,1014.14
2018-05-29T00:08:21.419Z,1014.12
2018-05-29T00:09:21.345Z,1014.10
2018-05-29T00:10:21.269Z,1014.13
2018-05-29T00:11:21.200Z,1014.11
2018-05-29T00:12:21.120Z,1014.11
2018-05-29T00:13:21.046Z,1014.09
2018-05-29T00:14:20.970Z,1014.05
2018-05-29T00:15:20.896Z,1014.06
2018-05-29T00:16:20.820Z,1014.06
2018-05-29T00:17:20.747Z,1014.05
2018-05-29T00:18:20.670Z,1014.04
2018-05-29T00:19:20.596Z,1014.06
2018-05-29T00:20:20.521Z,1014.03
2018-05-29T00:21:20.446Z,1014.09
2018-05-29T00:22:20.372Z,1014.05
2018-05-29T00:23:20.297Z,1014.02
2018-05-29T00:24:20.234Z,1014.02
2018-05-29T00:25:20.146Z,1014.00
2018-05-29T00:26:20.073Z,1014.01
2018-05-29T00:27:19.998Z,1013.96
2018-05-29T00:28:19.935Z,1013.95
2018-05-29T00:29:19.848Z,1013.95
2018-05-29T00:30:19.773Z,1013.94
2018-05-29T00:31:19.698Z,1013.92
2018-05-29T00:32:19.636Z,1013.92
2018-05-29T00:33:19.547Z,1013.89
2018-05-29T00:34:19.473Z,1013.88
2018-05-29T00:35:19.398Z,1013.85
2018-05-29T00:36:19.324Z,1013.84
2018-05-29T00:37:19.249Z,1013.81
2018-05-29T00:38:19.173Z,1013.81
2018-05-29T00:39:19.098Z,1013.80
2018-05-29T00:40:19.024Z,1013.78
2018-05-29T00:41:18.948Z,1013.80
2018-05-29T00:42:18.866Z,1013.79
2018-05-29T00:43:18.797Z,1013.75
2018-05-29T00:44:18.724Z,1013.77
2018-05-29T00:45:18.637Z,1013.78
2018-05-29T00:46:18.561Z,1013.78
2018-05-29T00:47:18.499Z,1013.74
2018-05-29T00:48:18.416Z,1013.77
2018-05-29T00:49:18.341Z,1013.77
2018-05-29T00:50:18.262Z,1013.75
2018-05-29T00:51:18.188Z,1013.75
2018-05-29T00:52:18.113Z,1013.73
2018-05-29T00:53:18.038Z,1013.73
2018-05-29T00:54:17.963Z,1013.74
2018-05-29T00:55:17.888Z,1013.69
2018-05-29T00:56:17.814Z,1013.68
2018-05-29T00:57:17.737Z,1013.69
2018-05-29T00:58:17.663Z,1013.69
2018-05-29T00:59:17.590Z,1013.66
2018-05-29T01:00:17.517Z,1013.67
2018-05-29T01:01:17.438Z,1013.67
2018-05-29T01:02:17.363Z,1013.65
2018-05-29T01:03:17.288Z,1013.66
2018-05-29T01:04:17.214Z,1013.61
2018-05-29T01:05:17.139Z,1013.63
2018-05-29T01:06:17.064Z,1013.63
2018-05-29T01:07:16.989Z,1013.59
2018-05-29T01:08:16.914Z,1013.63
2018-05-29T01:09:16.840Z,1013.61
2018-05-29T01:10:16.765Z,1013.66
2018-05-29T01:11:16.690Z,1013.60
2018-05-29T01:12:16.615Z,1013.58
2018-05-29T01:13:16.530Z,1013.58
2018-05-29T01:14:16.453Z,1013.59
2018-05-29T01:15:16.378Z,1013.55
2018-05-29T01:16:16.317Z,1013.56
2018-05-29T01:17:16.228Z,1013.55
2018-05-29T01:18:16.152Z,1013.55
2018-05-29T01:19:16.081Z,1013.52
2018-05-29T01:20:16.003Z,1013.49
2018-05-29T01:21:15.927Z,1013.49
2018-05-29T01:22:15.853Z,1013.47
2018-05-29T01:23:15.777Z,1013.51
2018-05-29T01:24:15.704Z,1013.50
2018-05-29T01:25:15.628Z,1013.47
2018-05-29T01:26:15.566Z,1013.50
2018-05-29T01:27:15.479Z,1013.49
2018-05-29T01:28:15.404Z,1013.51
2018-05-29T01:29:15.330Z,1013.48
2018-05-29T01:30:15.267Z,1013.51
2018-05-29T01:31:15.180Z,1013.47
2018-05-29T01:32:15.105Z,1013.47
2018-05-29T01:33:15.033Z,1013.50
2018-05-29T01:34:14.968Z,1013.47
2018-05-29T01:35:14.883Z,1013.41
2018-05-29T01:36:14.805Z,1013.40
2018-05-29T01:37:14.720Z,1013.41
2018-05-29T01:38:14.643Z,1013.41
2018-05-29T01:39:14.569Z,1013.41
2018-05-29T01:40:14.495Z,1013.41
2018-05-29T01:41:14.418Z,1013.40
2018-05-29T01:42:14.344Z,1013.39
2018-05-29T01:43:14.270Z,1013.38
2018-05-29T01:44:14.194Z,1013.39
2018-05-29T01:45:14.118Z,1013.38
2018-05-29T01:46:14.044Z,1013.35
2018-05-29T01:47:13.969Z,1013.37
2018-05-29T01:48:13.894Z,1013.39
2018-05-29T01:49:13.820Z,1013.36
2018-05-29T01:50:13.744Z,1013.33
2018-05-29T01:51:13.669Z,1013.31
2018-05-29T01:52:13.595Z,1013.33
2018-05-29T01:53:13.507Z,1013.31
2018-05-29T01:54:13.433Z,1013.29
2018-05-29T01:55:13.357Z,1013.32
2018-05-29T01:56:13.283Z,1013.33
2018-05-29T01:57:13.207Z,1013.29
2018-05-29T01:58:13.132Z,1013.28
2018-05-29T01:59:13.069Z,1013.29
2018-05-29T02:00:12.981Z,1013.29
2018-05-29T02:01:12.909Z,1013.26
2018-05-29T02:02:12.847Z,1013.32
2018-05-29T02:03:12.758Z,1013.31
2018-05-29T02:04:12.683Z,1013.30
2018-05-29T02:05:12.608Z,1013.35
2018-05-29T02:06:12.533Z,1013.36
2018-05-29T02:07:12.458Z,1013.28
2018-05-29T02:08:12.372Z,1013.30
2018-05-29T02:09:12.298Z,1013.35
2018-05-29T02:10:12.221Z,1013.36
2018-05-29T02:11:12.147Z,1013.37
2018-05-29T02:12:12.072Z,1013.34
2018-05-29T02:13:11.996Z,1013.37
2018-05-29T02:14:11.921Z,1013.39
2018-05-29T02:15:11.848Z,1013.36
2018-05-29T02:16:11.771Z,1013.40
2018-05-29T02:17:11.697Z,1013.37
2018-05-29T02:18:11.625Z,1013.36
2018-05-29T02:19:11.548Z,1013.38
2018-05-29T02:20:11.461Z,1013.35
2018-05-29T02:21:11.384Z,1013.34
2018-05-29T02:22:11.309Z,1013.38
2018-05-29T02:23:11.235Z,1013.33
2018-05-29T02:24:11.164Z,1013.35
2018-05-29T02:25:11.084Z,1013.35
2018-05-29T02:26:11.009Z,1013.33
2018-05-29T02:27:10.936Z,1013.32
2018-05-29T02:28:10.860Z,1013.35
2018-05-29T02:29:10.787Z,1013.35
2018-05-29T02:30:10.713Z,1013.33
2018-05-29T02:31:10.651Z,1013.33
2018-05-29T02:32:10.550Z,1013.31
2018-05-29T02:33:10.478Z,1013.31
2018-05-29T02:34:10.399Z,1013.28
2018-05-29T02:35:10.324Z,1013.28
2018-05-29T02:36:10.249Z,1013.26
2018-05-29T02:37:10.179Z,1013.26
2018-05-29T02:38:10.099Z,1013.22
2018-05-29T02:39:10.025Z,1013.23
2018-05-29T02:40:09.952Z,1013.22
2018-05-29T02:41:09.878Z,1013.21
2018-05-29T02:42:09.787Z,1013.25
2018-05-29T02:43:09.712Z,1013.19
2018-05-29T02:44:09.649Z,1013.18
2018-05-29T02:45:09.562Z,1013.21
2018-05-29T02:46:09.487Z,1013.23
2018-05-29T02:47:09.412Z,1013.21
2018-05-29T02:48:09.351Z,1013.18
2018-05-29T02:49:09.262Z,1013.21
2018-05-29T02:50:09.201Z,1013.21
2018-05-29T02:51:09.118Z,1013.20
2018-05-29T02:52:09.063Z,1013.20
2018-05-29T02:53:08.951Z,1013.22
2018-05-29T02:54:08.876Z,1013.20
2018-05-29T02:55:08.802Z,1013.21
2018-05-29T02:56:08.726Z,1013.19
2018-05-29T02:57:08.651Z,1013.17
2018-05-29T02:58:08.577Z,1013.20
2018-05-29T02:59:08.502Z,1013.19
2018-05-29T03:00:08.427Z,1013.21
2018-05-29T03:01:08.352Z,1013.20
2018-05-29T03:02:08.264Z,1013.21
2018-05-29T03:03:08.188Z,1013.20
2018-05-29T03:04:08.117Z,1013.20
2018-05-29T03:05:08.040Z,1013.19
2018-05-29T03:06:07.964Z,1013.20
2018-05-29T03:07:07.890Z,1013.18
2018-05-29T03:08:07.821Z,1013.18
2018-05-29T03:09:07.742Z,1013.16
2018-05-29T03:10:07.667Z,1013.12
2018-05-29T03:11:07.592Z,1013.15
2018-05-29T03:12:07.504Z,1013.10
2018-05-29T03:13:07.430Z,1013.11
2018-05-29T03:14:07.354Z,1013.07
2018-05-29T03:15:07.283Z,1013.09
2018-05-29T03:16:07.204Z,1013.06
2018-05-29T03:17:07.128Z,1013.09
2018-05-29T03:18:07.054Z,1013.12
2018-05-29T03:19:06.979Z,1013.09
2018-05-29T03:20:06.892Z,1013.09
2018-05-29T03:21:06.816Z,1013.14
2018-05-29T03:22:06.741Z,1013.14
2018-05-29T03:23:06.679Z,1013.16
2018-05-29T03:24:06.591Z,1013.13
2018-05-29T03:25:06.522Z,1013.14
2018-05-29T03:26:06.441Z,1013.12
2018-05-29T03:27:06.379Z,1013.19
2018-05-29T03:28:06.291Z,1013.14
2018-05-29T03:29:06.205Z,1013.16
2018-05-29T03:30:06.131Z,1013.19
2018-05-29T03:31:06.056Z,1013.18
2018-05-29T03:32:05.980Z,1013.17
2018-05-29T03:33:05.908Z,1013.18
2018-05-29T03:34:05.831Z,1013.19
2018-05-29T03:35:05.755Z,1013.21
2018-05-29T03:36:05.682Z,1013.19
2018-05-29T03:37:05.596Z,1013.19
2018-05-29T03:38:05.521Z,1013.18
2018-05-29T03:39:05.443Z,1013.19
2018-05-29T03:40:05.371Z,1013.17
2018-05-29T03:41:05.293Z,1013.18
2018-05-29T03:42:05.232Z,1013.20
2018-05-29T03:43:05.143Z,1013.20
2018-05-29T03:44:05.115Z,1013.19
2018-05-29T03:45:04.993Z,1013.22
2018-05-29T03:46:04.907Z,1013.19
2018-05-29T03:47:04.834Z,1013.19
2018-05-29T03:48:04.761Z,1013.12
2018-05-29T03:49:04.682Z,1013.10
2018-05-29T03:50:04.608Z,1013.10
2018-05-29T03:51:04.532Z,1013.11
2018-05-29T03:52:04.457Z,1013.07
2018-05-29T03:53:04.382Z,1013.05
2018-05-29T03:54:04.308Z,1013.02
2018-05-29T03:55:04.220Z,1013.00
2018-05-29T03:56:04.165Z,1013.02
2018-05-29T03:57:04.070Z,1012.99
2018-05-29T03:58:03.998Z,1013.01
2018-05-29T03:59:03.920Z,1012.96
2018-05-29T04:00:03.845Z,1013.00
2018-05-29T04:01:03.778Z,1012.98
2018-05-29T04:02:03.695Z,1013.04
2018-05-29T04:03:03.621Z,1013.08
2018-05-29T04:04:03.536Z,1013.04
2018-05-29T04:05:03.463Z,1013.06
2018-05-29T04:06:03.384Z,1013.10
2018-05-29T04:07:03.321Z,1013.05
2018-05-29T04:08:03.234Z,1013.13
2018-05-29T04:09:03.160Z,1013.10
2018-05-29T04:10:03.149Z,1013.13
2018-05-29T04:11:03.010Z,1013.11
2018-05-29T04:12:02.934Z,1013.13
2018-05-29T04:13:02.848Z,1013.11
2018-05-29T04:14:02.772Z,1013.16
2018-05-29T04:15:02.696Z,1013.13
2018-05-29T04:16:02.622Z,1013.13
2018-05-29T04:17:02.578Z,1013.15
2018-05-29T04:18:02.472Z,1013.11
2018-05-29T04:19:02.411Z,1013.16
2018-05-29T04:20:02.327Z,1013.13
2018-05-29T04:21:02.248Z,1013.13
2018-05-29T04:22:02.161Z,1013.13
2018-05-29T04:23:02.086Z,1013.15
2018-05-29T04:24:02.013Z,1013.11
2018-05-29T04:25:01.937Z,1013.12
2018-05-29T04:26:01.864Z,1013.19
2018-05-29T04:27:01.790Z,1013.14
2018-05-29T04:28:01.712Z,1013.15
2018-05-29T04:29:01.640Z,1013.15
2018-05-29T04:30:01.563Z,1013.17
2018-05-29T04:31:01.486Z,1013.22
2018-05-29T04:32:01.403Z,1013.19
2018-05-29T04:33:01.324Z,1013.18
2018-05-29T04:34:01.250Z,1013.18
2018-05-29T04:35:01.174Z,1013.19
2018-05-29T04:36:01.099Z,1013.14
2018-05-29T04:37:01.024Z,1013.15
2018-05-29T04:38:00.949Z,1013.15
2018-05-29T04:39:00.887Z,1013.17
2018-05-29T04:40:00.800Z,1013.16
2018-05-29T04:41:00.739Z,1013.18
2018-05-29T04:42:00.649Z,1013.22
2018-05-29T04:43:00.563Z,1013.22
2018-05-29T04:44:00.488Z,1013.23
2018-05-29T04:45:00.412Z,1013.23
2018-05-29T04:46:00.338Z,1013.23
2018-05-29T04:47:00.308Z,1013.29
2018-05-29T04:48:00.190Z,1013.30
2018-05-29T04:49:00.114Z,1013.33
2018-05-29T04:50:00.039Z,1013.28
2018-05-29T04:50:59.964Z,1013.31
2018-05-29T04:51:59.892Z,1013.30
2018-05-29T04:52:59.824Z,1013.33
2018-05-29T04:53:59.738Z,1013.38
2018-05-29T04:54:59.672Z,1013.32
2018-05-29T04:55:59.589Z,1013.29
2018-05-29T04:56:59.518Z,1013.31
2018-05-29T04:57:59.440Z,1013.27
2018-05-29T04:58:59.371Z,1013.29
2018-05-29T04:59:59.291Z,1013.32
2018-05-29T05:00:59.221Z,1013.29
2018-05-29T05:01:59.139Z,1013.27
2018-05-29T05:02:59.065Z,1013.25
2018-05-29T05:03:58.990Z,1013.31
2018-05-29T05:04:58.920Z,1013.29
2018-05-29T05:05:58.840Z,1013.29
2018-05-29T05:06:58.765Z,1013.37
2018-05-29T05:07:58.694Z,1013.28
2018-05-29T05:08:58.640Z,1013.30
2018-05-29T05:09:58.543Z,1013.24
2018-05-29T05:10:58.466Z,1013.32
2018-05-29T05:11:58.391Z,1013.31
2018-05-29T05:12:58.320Z,1013.33
2018-05-29T05:13:58.244Z,1013.28
2018-05-29T05:14:58.167Z,1013.28
2018-05-29T05:15:58.091Z,1013.29
2018-05-29T05:16:58.018Z,1013.34
2018-05-29T05:17:57.941Z,1013.33
2018-05-29T05:18:57.868Z,1013.33
2018-05-29T05:19:57.792Z,1013.28
2018-05-29T05:20:57.705Z,1013.33
2018-05-29T05:21:57.630Z,1013.32
2018-05-29T05:22:57.567Z,1013.36
2018-05-29T05:23:57.483Z,1013.35
2018-05-29T05:24:57.419Z,1013.34
2018-05-29T05:25:57.330Z,1013.33
2018-05-29T05:26:57.256Z,1013.34
2018-05-29T05:27:57.184Z,1013.34
2018-05-29T05:28:57.120Z,1013.30
2018-05-29T05:29:57.032Z,1013.34
2018-05-29T05:30:56.956Z,1013.35
2018-05-29T05:31:56.881Z,1013.36
2018-05-29T05:32:56.805Z,1013.34
2018-05-29T05:33:56.730Z,1013.38
2018-05-29T05:34:56.655Z,1013.37
2018-05-29T05:35:56.581Z,1013.40
2018-05-29T05:36:56.506Z,1013.35
2018-05-29T05:37:56.432Z,1013.38
2018-05-29T05:38:56.358Z,1013.36
2018-05-29T05:39:56.281Z,1013.35
2018-05-29T05:40:56.207Z,1013.33
2018-05-29T05:41:56.131Z,1013.32
2018-05-29T05:42:56.059Z,1013.32
2018-05-29T05:43:55.982Z,1013.34
2018-05-29T05:44:55.906Z,1013.34
2018-05-29T05:45:55.831Z,1013.37
2018-05-29T05:46:55.758Z,1013.37
2018-05-29T05:47:55.682Z,1013.31
2018-05-29T05:48:55.606Z,1013.33
2018-05-29T05:49:55.532Z,1013.34
2018-05-29T05:50:55.457Z,1013.30
2018-05-29T05:51:55.382Z,1013.35
2018-05-29T05:52:55.307Z,1013.31
2018-05-29T05:53:55.234Z,1013.34
2018-05-29T05:54:55.157Z,1013.32
2018-05-29T05:55:55.095Z,1013.35
2018-05-29T05:56:55.008Z,1013.30
2018-05-29T05:57:54.933Z,1013.28
2018-05-29T05:58:54.858Z,1013.38
2018-05-29T05:59:54.796Z,1013.35
2018-05-29T06:00:54.708Z,1013.32
2018-05-29T06:01:54.633Z,1013.32
2018-05-29T06:02:54.566Z,1013.33
2018-05-29T06:03:54.484Z,1013.29
2018-05-29T06:04:54.409Z,1013.33
2018-05-29T06:05:54.334Z,1013.28
2018-05-29T06:06:54.259Z,1013.32
2018-05-29T06:07:54.184Z,1013.36
2018-05-29T06:08:54.108Z,1013.34
2018-05-29T06:09:54.034Z,1013.34
2018-05-29T06:10:53.959Z,1013.35
2018-05-29T06:11:53.886Z,1013.35
2018-05-29T06:12:53.809Z,1013.36
2018-05-29T06:13:53.747Z,1013.34
2018-05-29T06:14:53.659Z,1013.36
2018-05-29T06:15:53.584Z,1013.32
2018-05-29T06:16:53.513Z,1013.40
2018-05-29T06:17:53.434Z,1013.38
2018-05-29T06:18:53.360Z,1013.37
2018-05-29T06:19:53.285Z,1013.37
2018-05-29T06:20:53.210Z,1013.41
2018-05-29T06:21:53.135Z,1013.38
2018-05-29T06:22:53.061Z,1013.41
2018-05-29T06:23:52.987Z,1013.43
2018-05-29T06:24:52.912Z,1013.35
2018-05-29T06:25:52.838Z,1013.39
2018-05-29T06:26:52.774Z,1013.40
2018-05-29T06:27:52.698Z,1013.41
2018-05-29T06:28:52.624Z,1013.40
2018-05-29T06:29:52.549Z,1013.43
2018-05-29T06:30:52.475Z,1013.40
2018-05-29T06:31:52.400Z,1013.39
2018-05-29T06:32:52.383Z,1013.39
2018-05-29T06:33:52.250Z,1013.39
2018-05-29T06:34:52.175Z,1013.31
2018-05-29T06:35:52.099Z,1013.33
2018-05-29T06:36:52.025Z,1013.36
2018-05-29T06:37:51.950Z,1013.37
2018-05-29T06:38:51.875Z,1013.41
2018-05-29T06:39:51.801Z,1013.36
2018-05-29T06:40:51.725Z,1013.39
2018-05-29T06:41:51.653Z,1013.39
2018-05-29T06:42:51.576Z,1013.39
2018-05-29T06:43:51.500Z,1013.38
2018-05-29T06:44:51.490Z,1013.40
2018-05-29T06:45:51.351Z,1013.41
2018-05-29T06:46:51.281Z,1013.38
2018-05-29T06:47:51.202Z,1013.37
2018-05-29T06:48:51.126Z,1013.39
2018-05-29T06:49:51.053Z,1013.44
2018-05-29T06:50:50.988Z,1013.31
2018-05-29T06:51:50.913Z,1013.40
2018-05-29T06:52:50.851Z,1013.36
2018-05-29T06:53:50.769Z,1013.38
2018-05-29T06:54:50.689Z,1013.35
2018-05-29T06:55:50.614Z,1013.36
2018-05-29T06:56:50.552Z,1013.32
2018-05-29T06:57:50.510Z,1013.31
2018-05-29T06:58:50.389Z,1013.33
2018-05-29T06:59:50.316Z,1013.29
2018-05-29T07:00:50.239Z,1013.26
2018-05-29T07:01:50.166Z,1013.29
2018-05-29T07:02:50.104Z,1013.29
2018-05-29T07:03:50.033Z,1013.22
2018-05-29T07:04:49.953Z,1013.26
2018-05-29T07:05:49.879Z,1013.25
2018-05-29T07:06:49.804Z,1013.24
2018-05-29T07:07:49.731Z,1013.26
2018-05-29T07:08:49.655Z,1013.24
2018-05-29T07:09:49.580Z,1013.23
2018-05-29T07:10:49.504Z,1013.22
2018-05-29T07:11:49.441Z,1013.16
2018-05-29T07:12:49.366Z,1013.14
2018-05-29T07:13:49.304Z,1013.17
2018-05-29T07:14:49.216Z,1013.14
2018-05-29T07:15:49.142Z,1013.15
2018-05-29T07:16:49.066Z,1013.13
2018-05-29T07:17:49.004Z,1013.12
2018-05-29T07:18:48.935Z,1013.12
2018-05-29T07:19:48.859Z,1013.07
2018-05-29T07:20:48.780Z,1013.00
2018-05-29T07:21:48.705Z,1013.12
2018-05-29T07:22:48.642Z,1013.07
2018-05-29T07:23:48.568Z,1013.01
2018-05-29T07:24:48.492Z,1013.11
2018-05-29T07:25:48.418Z,1013.09
2018-05-29T07:26:48.357Z,1013.10
2018-05-29T07:27:48.281Z,1013.03
2018-05-29T07:28:48.205Z,1013.00
2018-05-29T07:29:48.145Z,1013.07
2018-05-29T07:30:48.067Z,1013.01
2018-05-29T07:31:47.993Z,1013.06
2018-05-29T07:32:47.919Z,1012.99
2018-05-29T07:33:47.855Z,1012.99
2018-05-29T07:34:47.782Z,1012.99
2018-05-29T07:35:47.735Z,1013.04
2018-05-29T07:36:47.643Z,1012.99
2018-05-29T07:37:47.569Z,1012.94
2018-05-29T07:38:47.507Z,1012.95
2018-05-29T07:39:47.450Z,1013.01
2018-05-29T07:40:47.369Z,1012.95
2018-05-29T07:41:47.295Z,1012.91
2018-05-29T07:42:47.233Z,1012.94
2018-05-29T07:43:47.159Z,1012.90
2018-05-29T07:44:47.094Z,1012.89
2018-05-29T07:45:47.020Z,1012.81
2018-05-29T07:46:46.957Z,1012.79
2018-05-29T07:47:46.895Z,1012.86
2018-05-29T07:48:46.822Z,1012.82
2018-05-29T07:49:46.759Z,1012.82
2018-05-29T07:50:46.683Z,1012.82
2018-05-29T07:51:46.621Z,1012.78
2018-05-29T07:52:46.558Z,1012.80
2018-05-29T07:53:46.484Z,1012.80
2018-05-29T07:54:46.420Z,1012.78
2018-05-29T07:55:46.358Z,1012.80
2018-05-29T07:56:46.284Z,1012.80
2018-05-29T07:57:46.222Z,1012.82
2018-05-29T07:58:46.172Z,1012.80
2018-05-29T07:59:46.099Z,1012.80
2018-05-29T08:00:46.021Z,1012.87
2018-05-29T08:01:45.958Z,1012.81
2018-05-29T08:02:45.897Z,1012.77
2018-05-29T08:03:45.835Z,1012.81
2018-05-29T08:04:45.759Z,1012.72
2018-05-29T08:05:45.698Z,1012.73
2018-05-29T08:06:45.637Z,1012.70
2018-05-29T08:07:45.571Z,1012.70
2018-05-29T08:08:45.497Z,1012.73
2018-05-29T08:09:45.439Z,1012.72
2018-05-29T08:10:45.372Z,1012.68
2018-05-29T08:11:45.309Z,1012.72
2018-05-29T08:12:45.247Z,1012.73
2018-05-29T08:13:45.172Z,1012.74
2018-05-29T08:14:45.111Z,1012.71
2018-05-29T08:15:45.048Z,1012.62
2018-05-29T08:16:44.986Z,1012.61
2018-05-29T08:17:44.936Z,1012.64
2018-05-29T08:18:44.852Z,1012.64
2018-05-29T08:19:44.798Z,1012.69
2018-05-29T08:20:44.739Z,1012.69
2018-05-29T08:21:44.661Z,1012.69
2018-05-29T08:22:44.599Z,1012.68
2018-05-29T08:23:44.537Z,1012.66
2018-05-29T08:24:44.462Z,1012.74
2018-05-29T08:25:44.399Z,1012.71
2018-05-29T08:26:44.336Z,1012.79
2018-05-29T08:27:44.274Z,1012.72
2018-05-29T08:28:44.212Z,1012.67
2018-05-29T08:29:44.149Z,1012.71
2018-05-29T08:30:44.088Z,1012.71
2018-05-29T08:31:44.025Z,1012.72
2018-05-29T08:32:43.952Z,1012.69
2018-05-29T08:33:43.896Z,1012.73
2018-05-29T08:34:43.826Z,1012.75
2018-05-29T08:35:43.763Z,1012.72
2018-05-29T08:36:43.700Z,1012.81
2018-05-29T08:37:43.643Z,1012.73
2018-05-29T08:38:43.576Z,1012.75
2018-05-29T08:39:43.543Z,1012.75
2018-05-29T08:40:43.450Z,1012.74
2018-05-29T08:41:43.389Z,1012.71
2018-05-29T08:42:43.327Z,1012.71
2018-05-29T08:43:43.264Z,1012.75
2018-05-29T08:44:43.190Z,1012.70
2018-05-29T08:45:43.127Z,1012.69
2018-05-29T08:46:43.065Z,1012.74
2018-05-29T08:47:43.002Z,1012.72
2018-05-29T08:48:42.939Z,1012.64
2018-05-29T08:49:42.876Z,1012.67
2018-05-29T08:50:42.814Z,1012.67
2018-05-29T08:51:42.752Z,1012.64
2018-05-29T08:52:42.690Z,1012.61
2018-05-29T08:53:42.627Z,1012.65
2018-05-29T08:54:42.565Z,1012.64
2018-05-29T08:55:42.502Z,1012.68
2018-05-29T08:56:42.454Z,1012.68
2018-05-29T08:57:42.379Z,1012.67
2018-05-29T08:58:42.315Z,1012.76
2018-05-29T08:59:42.253Z,1012.73
2018-05-29T09:00:42.198Z,1012.70
2018-05-29T09:01:42.131Z,1012.68
2018-05-29T09:02:42.067Z,1012.66
2018-05-29T09:03:42.004Z,1012.63
2018-05-29T09:04:41.942Z,1012.60
2018-05-29T09:05:41.878Z,1012.72
2018-05-29T09:06:41.816Z,1012.67
2018-05-29T09:07:41.754Z,1012.65
2018-05-29T09:08:41.697Z,1012.65
2018-05-29T09:09:41.628Z,1012.67
2018-05-29T09:10:41.567Z,1012.64
2018-05-29T09:11:41.505Z,1012.61
2018-05-29T09:12:41.444Z,1012.58
2018-05-29T09:13:41.380Z,1012.59
2018-05-29T09:14:41.318Z,1012.67
2018-05-29T09:15:41.268Z,1012.56
2018-05-29T09:16:41.195Z,1012.60
2018-05-29T09:17:41.130Z,1012.66
2018-05-29T09:18:41.068Z,1012.68
2018-05-29T09:19:41.008Z,1012.67
2018-05-29T09:20:40.944Z,1012.66
2018-05-29T09:21:40.893Z,1012.74
2018-05-29T09:22:40.832Z,1012.68
2018-05-29T09:23:40.769Z,1012.68
2018-05-29T09:24:40.705Z,1012.65
2018-05-29T09:25:40.643Z,1012.62
2018-05-29T09:26:40.596Z,1012.61
2018-05-29T09:27:40.519Z,1012.60
2018-05-29T09:28:40.455Z,1012.65
2018-05-29T09:29:40.452Z,1012.61
2018-05-29T09:30:40.331Z,1012.64
2018-05-29T09:31:40.269Z,1012.61
2018-05-29T09:32:40.207Z,1012.63
2018-05-29T09:33:40.145Z,1012.65
2018-05-29T09:34:40.095Z,1012.64
2018-05-29T09:35:40.032Z,1012.65
2018-05-29T09:36:39.970Z,1012.60
2018-05-29T09:37:39.910Z,1012.59
2018-05-29T09:38:39.846Z,1012.57
2018-05-29T09:39:39.783Z,1012.55
2018-05-29T09:40:39.722Z,1012.56
2018-05-29T09:41:39.657Z,1012.56
2018-05-29T09:42:39.599Z,1012.58
2018-05-29T09:43:39.546Z,1012.23
2018-05-29T09:44:39.483Z,1012.24
2018-05-29T09:45:39.408Z,1012.16
2018-05-29T09:46:39.347Z,1012.16
2018-05-29T09:47:39.284Z,1012.25
2018-05-29T09:48:39.223Z,1012.44
2018-05-29T09:49:39.158Z,1012.12
2018-05-29T09:50:39.103Z,1012.58
2018-05-29T09:51:39.033Z,1012.27
2018-05-29T09:52:38.976Z,1012.41
2018-05-29T09:53:38.909Z,1012.28
2018-05-29T09:54:38.836Z,1012.38
2018-05-29T09:55:38.771Z,1012.51
2018-05-29T09:56:38.716Z,1012.48
2018-05-29T09:57:38.648Z,1012.52
2018-05-29T09:58:38.583Z,1012.46
2018-05-29T09:59:38.522Z,1012.48
2018-05-29T10:00:38.448Z,1012.36
2018-05-29T10:01:38.384Z,1012.45
2018-05-29T10:02:38.331Z,1012.49
2018-05-29T10:03:38.260Z,1012.13
2018-05-29T10:04:38.199Z,1012.27
2018-05-29T10:05:38.129Z,1012.41
2018-05-29T10:06:38.060Z,1012.29
2018-05-29T10:07:37.998Z,1012.09
2018-05-29T10:08:37.935Z,1011.93
2018-05-29T10:09:37.874Z,1011.92
2018-05-29T10:10:37.797Z,1011.88
2018-05-29T10:11:37.735Z,1011.91
2018-05-29T10:12:37.673Z,1011.88
2018-05-29T10:13:37.610Z,1011.86
2018-05-29T10:14:37.537Z,1011.81
2018-05-29T10:15:37.474Z,1011.87
2018-05-29T10:16:37.410Z,1011.92
2018-05-29T10:17:37.350Z,1011.84
2018-05-29T10:18:37.286Z,1011.90
2018-05-29T10:19:37.211Z,1011.99
2018-05-29T10:20:37.149Z,1011.98
2018-05-29T10:21:37.087Z,1011.97
2018-05-29T10:22:37.012Z,1011.91
2018-05-29T10:23:36.951Z,1011.89
2018-05-29T10:24:36.889Z,1011.82
2018-05-29T10:25:36.827Z,1011.81
2018-05-29T10:26:36.752Z,1011.79
2018-05-29T10:27:36.687Z,1011.78
2018-05-29T10:28:36.627Z,1011.79
2018-05-29T10:29:36.553Z,1011.76
2018-05-29T10:30:36.487Z,1011.79
2018-05-29T10:31:36.425Z,1011.77
2018-05-29T10:32:36.351Z,1011.67
2018-05-29T10:33:36.292Z,1011.79
2018-05-29T10:34:36.227Z,1011.80
2018-05-29T10:35:36.151Z,1011.77
2018-05-29T10:36:36.135Z,1011.89
2018-05-29T10:37:36.031Z,1011.98
2018-05-29T10:38:35.952Z,1011.80
2018-05-29T10:39:35.888Z,1012.10
2018-05-29T10:40:35.827Z,1011.95
2018-05-29T10:41:35.752Z,1011.83
2018-05-29T10:42:35.689Z,1011.80
2018-05-29T10:43:35.627Z,1011.83
2018-05-29T10:44:35.553Z,1011.87
2018-05-29T10:45:35.489Z,1011.85
2018-05-29T10:46:35.416Z,1011.88
2018-05-29T10:47:35.353Z,1011.93
2018-05-29T10:48:35.292Z,1011.93
2018-05-29T10:49:35.228Z,1011.75
2018-05-29T10:50:35.153Z,1011.84
2018-05-29T10:51:35.090Z,1011.82
2018-05-29T10:52:35.055Z,1011.79
2018-05-29T10:53:34.965Z,1011.74
2018-05-29T10:54:34.894Z,1011.71
2018-05-29T10:55:34.830Z,1011.79
2018-05-29T10:56:34.766Z,1011.77
2018-05-29T10:57:34.707Z,1011.73
2018-05-29T10:58:34.643Z,1011.69
2018-05-29T10:59:34.580Z,1011.75
2018-05-29T11:00:34.528Z,1011.72
2018-05-29T11:01:34.454Z,1011.71
2018-05-29T11:02:34.390Z,1011.67
2018-05-29T11:03:34.329Z,1011.70
2018-05-29T11:04:34.266Z,1011.76
2018-05-29T11:05:34.205Z,1011.62
2018-05-29T11:06:34.141Z,1011.64
2018-05-29T11:07:34.082Z,1011.65
2018-05-29T11:08:34.020Z,1011.65
2018-05-29T11:09:33.955Z,1011.66
2018-05-29T11:10:33.893Z,1011.66
2018-05-29T11:11:33.841Z,1011.63
2018-05-29T11:12:33.780Z,1011.62
2018-05-29T11:13:33.725Z,1011.57
2018-05-29T11:14:33.655Z,1011.65
2018-05-29T11:15:33.593Z,1011.59
2018-05-29T11:16:33.530Z,1011.63
2018-05-29T11:17:33.483Z,1011.61
2018-05-29T11:18:33.418Z,1011.59
2018-05-29T11:19:33.356Z,1011.57
2018-05-29T11:20:33.298Z,1011.54
2018-05-29T11:21:33.231Z,1011.56
2018-05-29T11:22:33.180Z,1011.51
2018-05-29T11:23:33.121Z,1011.47
2018-05-29T11:24:33.056Z,1011.51
2018-05-29T11:25:32.999Z,1011.44
2018-05-29T11:26:32.935Z,1011.46
2018-05-29T11:27:32.881Z,1011.51
2018-05-29T11:28:32.819Z,1011.53
2018-05-29T11:29:32.759Z,1011.43
2018-05-29T11:30:32.707Z,1011.41
2018-05-29T11:31:32.643Z,1011.40
2018-05-29T11:32:32.583Z,1011.39
2018-05-29T11:33:32.519Z,1011.35
2018-05-29T11:34:32.460Z,1011.37
2018-05-29T11:35:32.395Z,1011.39
2018-05-29T11:36:32.334Z,1011.42
2018-05-29T11:37:32.283Z,1011.38
2018-05-29T11:38:32.219Z,1011.35
2018-05-29T11:39:32.157Z,1011.34
2018-05-29T11:40:32.110Z,1011.33
2018-05-29T11:41:32.045Z,1011.34
2018-05-29T11:42:32.000Z,1011.27
2018-05-29T11:43:31.934Z,1011.30
2018-05-29T11:44:31.858Z,1011.27
2018-05-29T11:45:31.796Z,1011.33
2018-05-29T11:46:31.746Z,1011.36
2018-05-29T11:47:31.687Z,1011.32
2018-05-29T11:48:31.639Z,1011.30
2018-05-29T11:49:31.559Z,1011.30
2018-05-29T11:50:31.510Z,1011.20
2018-05-29T11:51:31.446Z,1011.24
2018-05-29T11:52:31.386Z,1011.28
2018-05-29T11:53:31.334Z,1011.21
2018-05-29T11:54:31.260Z,1011.16
2018-05-29T11:55:31.210Z,1011.13
2018-05-29T11:56:31.147Z,1011.14
2018-05-29T11:57:31.287Z,1011.18
2018-05-29T11:58:31.022Z,1011.14
2018-05-29T11:59:30.973Z,1011.17
2018-05-29T12:00:30.938Z,1011.18
2018-05-29T12:01:34.085Z,1011.14
2018-05-29T12:02:30.785Z,1011.16
2018-05-29T12:03:30.724Z,1011.18
2018-05-29T12:04:31.085Z,1011.16